createdAt,value
2022-12-01T00:02:09.335Z,5.50
2022-12-01T00:04:36.274Z,5.50
2022-12-01T00:07:03.046Z,5.50
2022-12-01T00:09:48.720Z,5.50
2022-12-01T00:12:15.640Z,5.50
2022-12-01T00:14:42.387Z,5.50
2022-12-01T00:17:09.150Z,5.50
2022-12-01T00:19:35.999Z,5.50
2022-12-01T00:22:03.209Z,5.50
2022-12-01T00:24:30.100Z,5.50
2022-12-01T00:26:56.953Z,5.50
2022-12-01T00:29:23.726Z,5.50
2022-12-01T00:31:50.507Z,5.50
2022-12-01T00:34:25.506Z,5.50
2022-12-01T00:36:52.590Z,5.50
2022-12-01T00:39:19.405Z,5.50
2022-12-01T00:41:46.239Z,5.50
2022-12-01T00:44:13.052Z,5.50
2022-12-01T00:46:39.871Z,5.50
2022-12-01T00:49:06.646Z,5.50
2022-12-01T00:51:33.627Z,5.50
2022-12-01T00:54:00.404Z,5.50
2022-12-01T00:56:27.272Z,5.50
2022-12-01T00:58:54.118Z,5.50
2022-12-01T01:01:21.228Z,5.50
2022-12-01T01:03:48.142Z,5.50
2022-12-01T01:06:15.012Z,5.50
2022-12-01T01:08:42.399Z,5.50
2022-12-01T01:11:09.641Z,5.50
2022-12-01T01:13:36.742Z,5.50
2022-12-01T01:16:12.420Z,5.50
2022-12-01T01:18:39.272Z,5.50
2022-12-01T01:21:10.567Z,5.50
2022-12-01T01:23:37.363Z,5.50
2022-12-01T01:26:12.068Z,5.50
2022-12-01T01:28:41.540Z,5.50
2022-12-01T01:31:10.176Z,5.50
2022-12-01T01:33:37.183Z,5.50
2022-12-01T01:36:04.794Z,5.50
2022-12-01T01:38:31.762Z,5.50
2022-12-01T01:40:58.710Z,5.50
2022-12-01T01:44:03.008Z,5.50
2022-12-01T01:46:34.520Z,5.50
2022-12-01T01:49:08.780Z,5.50
2022-12-01T01:51:53.435Z,5.50
2022-12-01T01:54:34.569Z,5.50
2022-12-01T01:57:02.744Z,5.50
2022-12-01T01:59:32.897Z,5.50
2022-12-01T02:02:09.471Z,5.50
2022-12-01T02:04:40.389Z,5.50
2022-12-01T02:07:08.914Z,5.50
2022-12-01T02:09:36.584Z,5.50
2022-12-01T02:12:45.420Z,5.50
2022-12-01T02:15:28.513Z,5.40
2022-12-01T02:18:18.107Z,5.40
2022-12-01T02:20:50.738Z,5.50
2022-12-01T02:23:23.471Z,5.40
2022-12-01T02:26:16.316Z,5.50
2022-12-01T02:29:02.039Z,5.50
2022-12-01T02:31:48.210Z,5.50
2022-12-01T02:34:27.538Z,5.50
2022-12-01T02:37:10.907Z,5.50
2022-12-01T02:40:06.917Z,5.50
2022-12-01T02:42:50.506Z,5.40
2022-12-01T02:45:47.921Z,5.50
2022-12-01T02:48:35.361Z,5.40
2022-12-01T02:51:16.296Z,5.50
2022-12-01T02:53:43.490Z,5.40
2022-12-01T02:56:12.510Z,5.40
2022-12-01T02:58:39.375Z,5.40
2022-12-01T03:01:21.437Z,5.40
2022-12-01T03:04:16.980Z,5.40
2022-12-01T03:07:12.667Z,5.40
2022-12-01T03:10:07.462Z,5.50
2022-12-01T03:12:57.573Z,5.40
2022-12-01T03:15:33.805Z,5.40
2022-12-01T03:18:07.860Z,5.50
2022-12-01T03:20:41.461Z,5.40
2022-12-01T03:23:15.832Z,5.40
2022-12-01T03:25:45.186Z,5.40
2022-12-01T03:28:21.190Z,5.40
2022-12-01T03:30:52.599Z,5.40
2022-12-01T03:33:43.360Z,5.40
2022-12-01T03:36:42.587Z,5.40
2022-12-01T03:39:14.942Z,5.40
2022-12-01T03:41:47.242Z,5.40
2022-12-01T03:44:20.699Z,5.40
2022-12-01T03:47:10.820Z,5.40
2022-12-01T03:49:39.883Z,5.40
2022-12-01T03:52:28.367Z,5.40
2022-12-01T03:55:20.945Z,5.40
2022-12-01T03:58:08.848Z,5.40
2022-12-01T04:00:36.292Z,5.30
2022-12-01T04:03:04.468Z,5.30
2022-12-01T04:05:34.125Z,5.30
2022-12-01T04:08:01.743Z,5.30
2022-12-01T04:10:28.795Z,5.30
2022-12-01T04:12:59.383Z,5.30
2022-12-01T04:15:27.295Z,5.30
2022-12-01T04:17:54.618Z,5.30
2022-12-01T04:20:22.571Z,5.30
2022-12-01T04:22:49.667Z,5.30
2022-12-01T04:25:16.588Z,5.30
2022-12-01T04:27:43.440Z,5.30
2022-12-01T04:30:11.075Z,5.30
2022-12-01T04:32:39.807Z,5.30
2022-12-01T04:35:08.031Z,5.30
2022-12-01T04:37:34.960Z,5.30
2022-12-01T04:40:01.818Z,5.30
2022-12-01T04:42:28.591Z,5.30
2022-12-01T04:44:55.476Z,5.30
2022-12-01T04:47:22.284Z,5.30
2022-12-01T04:49:49.446Z,5.30
2022-12-01T04:52:16.567Z,5.30
2022-12-01T04:54:43.608Z,5.30
2022-12-01T04:57:10.459Z,5.30
2022-12-01T04:59:37.356Z,5.20
2022-12-01T05:02:04.315Z,5.30
2022-12-01T05:04:32.548Z,5.30
2022-12-01T05:06:59.430Z,5.30
2022-12-01T05:09:26.228Z,5.30
2022-12-01T05:11:53.026Z,5.20
2022-12-01T05:14:19.878Z,5.20
2022-12-01T05:16:46.784Z,5.20
2022-12-01T05:19:32.194Z,5.30
2022-12-01T05:21:58.983Z,5.20
2022-12-01T05:24:25.745Z,5.20
2022-12-01T05:26:52.540Z,5.20
2022-12-01T05:29:19.425Z,5.20
2022-12-01T05:31:47.042Z,5.20
2022-12-01T05:34:13.986Z,5.20
2022-12-01T05:36:40.887Z,5.20
2022-12-01T05:39:07.832Z,5.20
2022-12-01T05:41:34.724Z,5.20
2022-12-01T05:44:01.525Z,5.20
2022-12-01T05:46:28.323Z,5.20
2022-12-01T05:48:55.161Z,5.20
2022-12-01T05:51:22.019Z,5.20
2022-12-01T05:53:48.862Z,5.20
2022-12-01T05:56:15.638Z,5.20
2022-12-01T05:58:42.538Z,5.20
2022-12-01T06:01:09.456Z,5.20
2022-12-01T06:03:36.290Z,5.10
2022-12-01T06:06:03.267Z,5.20
2022-12-01T06:08:30.135Z,5.20
2022-12-01T06:10:56.977Z,5.20
2022-12-01T06:13:23.826Z,5.20
2022-12-01T06:16:02.567Z,5.20
2022-12-01T06:18:35.396Z,5.20
2022-12-01T06:21:02.414Z,5.20
2022-12-01T06:23:30.686Z,5.20
2022-12-01T06:25:58.250Z,5.20
2022-12-01T06:28:25.103Z,5.20
2022-12-01T06:30:52.009Z,5.20
2022-12-01T06:33:18.922Z,5.20
2022-12-01T06:35:45.790Z,5.20
2022-12-01T06:38:12.638Z,5.20
2022-12-01T06:40:39.398Z,5.20
2022-12-01T06:43:06.502Z,5.20
2022-12-01T06:45:33.504Z,5.20
2022-12-01T06:48:00.666Z,5.20
2022-12-01T06:50:27.666Z,5.20
2022-12-01T06:52:54.904Z,5.20
2022-12-01T06:55:21.895Z,5.20
2022-12-01T06:57:49.048Z,5.20
2022-12-01T07:00:16.899Z,5.20
2022-12-01T07:02:44.337Z,5.20
2022-12-01T07:05:11.375Z,5.20
2022-12-01T07:07:39.743Z,5.20
2022-12-01T07:10:07.820Z,5.20
2022-12-01T07:12:34.839Z,5.10
2022-12-01T07:15:02.276Z,5.20
2022-12-01T07:17:29.785Z,5.10
2022-12-01T07:19:57.061Z,5.10
2022-12-01T07:22:28.191Z,5.20
2022-12-01T07:24:59.148Z,5.10
2022-12-01T07:27:28.991Z,5.20
2022-12-01T07:29:55.859Z,5.20
2022-12-01T07:32:22.695Z,5.20
2022-12-01T07:34:49.483Z,5.20
2022-12-01T07:37:16.377Z,5.20
2022-12-01T07:39:43.221Z,5.20
2022-12-01T07:42:10.024Z,5.20
2022-12-01T07:44:36.877Z,5.30
2022-12-01T07:47:03.798Z,5.30
2022-12-01T07:49:30.582Z,5.30
2022-12-01T07:51:57.465Z,5.30
2022-12-01T07:54:25.723Z,5.30
2022-12-01T07:56:52.598Z,5.30
2022-12-01T07:59:19.498Z,5.40
2022-12-01T08:01:46.531Z,5.40
2022-12-01T08:04:13.378Z,5.30
2022-12-01T08:06:40.325Z,5.40
2022-12-01T08:09:07.145Z,5.40
2022-12-01T08:11:34.106Z,5.40
2022-12-01T08:14:00.892Z,5.40
2022-12-01T08:16:27.944Z,5.50
2022-12-01T08:18:54.901Z,5.40
2022-12-01T08:21:24.086Z,5.50
2022-12-01T08:23:56.085Z,5.50
2022-12-01T08:26:24.587Z,5.50
2022-12-01T08:28:51.574Z,5.50
2022-12-01T08:31:20.336Z,5.50
2022-12-01T08:33:48.217Z,5.50
2022-12-01T08:36:15.646Z,5.60
2022-12-01T08:38:46.871Z,5.60
2022-12-01T08:41:14.700Z,5.60
2022-12-01T08:44:00.292Z,5.60
2022-12-01T08:46:31.500Z,5.60
2022-12-01T08:48:58.508Z,5.70
2022-12-01T08:51:26.271Z,5.70
2022-12-01T08:53:54.427Z,5.70
2022-12-01T08:56:28.293Z,5.70
2022-12-01T08:58:55.820Z,5.80
2022-12-01T09:01:23.279Z,5.80
2022-12-01T09:04:05.276Z,5.80
2022-12-01T09:06:34.611Z,5.80
2022-12-01T09:09:01.459Z,5.90
2022-12-01T09:11:28.228Z,5.90
2022-12-01T09:13:55.051Z,5.90
2022-12-01T09:16:22.118Z,5.90
2022-12-01T09:18:49.205Z,5.90
2022-12-01T09:21:18.533Z,6.00
2022-12-01T09:23:45.430Z,6.00
2022-12-01T09:26:14.024Z,6.00
2022-12-01T09:28:40.944Z,6.00
2022-12-01T09:31:09.897Z,6.00
2022-12-01T09:33:37.083Z,6.10
2022-12-01T09:36:05.327Z,6.10
2022-12-01T09:38:34.163Z,6.20
2022-12-01T09:41:21.268Z,6.20
2022-12-01T09:43:54.332Z,6.20
2022-12-01T09:46:36.610Z,6.20
2022-12-01T09:49:06.282Z,6.30
2022-12-01T09:51:36.233Z,6.30
2022-12-01T09:54:03.652Z,6.30
2022-12-01T09:56:33.562Z,6.30
2022-12-01T09:59:02.892Z,6.30
2022-12-01T10:01:38.364Z,6.40
2022-12-01T10:04:17.560Z,6.40
2022-12-01T10:07:09.173Z,6.40
2022-12-01T10:10:07.364Z,6.40
2022-12-01T10:12:35.900Z,6.40
2022-12-01T10:15:16.156Z,6.40
2022-12-01T10:17:58.131Z,6.40
2022-12-01T10:20:33.907Z,6.40
2022-12-01T10:23:16.002Z,6.50
2022-12-01T10:25:52.053Z,6.50
2022-12-01T10:29:00.700Z,6.50
2022-12-01T10:31:58.470Z,6.50
2022-12-01T10:34:29.164Z,6.50
2022-12-01T10:36:57.073Z,6.60
2022-12-01T10:39:36.760Z,6.60
2022-12-01T10:42:22.161Z,6.60
2022-12-01T10:44:50.458Z,6.60
2022-12-01T10:47:23.548Z,6.50
2022-12-01T10:49:50.741Z,6.60
2022-12-01T10:52:35.102Z,6.60
2022-12-01T10:55:03.749Z,6.60
2022-12-01T10:57:31.969Z,6.60
2022-12-01T11:00:01.470Z,6.60
2022-12-01T11:02:30.817Z,6.60
2022-12-01T11:04:59.368Z,6.60
2022-12-01T11:07:30.238Z,6.70
2022-12-01T11:10:14.976Z,6.60
2022-12-01T11:12:43.898Z,6.70
2022-12-01T11:15:21.680Z,6.70
2022-12-01T11:17:56.132Z,6.70
2022-12-01T11:20:26.988Z,6.80
2022-12-01T11:23:26.389Z,6.80
2022-12-01T11:26:16.191Z,6.80
2022-12-01T11:28:56.062Z,6.90
2022-12-01T11:31:36.187Z,6.90
2022-12-01T11:34:03.478Z,6.90
2022-12-01T11:36:38.488Z,6.90
2022-12-01T11:39:05.527Z,7.00
2022-12-01T11:41:40.591Z,7.00
2022-12-01T11:47:25.069Z,7.20
2022-12-01T11:49:58.140Z,7.20
2022-12-01T11:52:36.434Z,7.30
2022-12-01T11:55:08.478Z,7.30
2022-12-01T11:57:39.879Z,7.30
2022-12-01T12:00:18.393Z,7.30
2022-12-01T12:03:12.133Z,7.40
2022-12-01T12:06:39.488Z,7.40
2022-12-01T12:09:05.023Z,7.40
2022-12-01T12:12:02.376Z,7.30
2022-12-01T12:14:48.517Z,7.30
2022-12-01T12:17:23.624Z,7.30
2022-12-01T12:20:18.119Z,7.20
2022-12-01T12:22:59.986Z,7.20
2022-12-01T12:25:56.486Z,7.20
2022-12-01T12:28:23.238Z,7.20
2022-12-01T12:31:14.819Z,7.20
2022-12-01T12:33:44.599Z,7.10
2022-12-01T12:36:26.938Z,7.20
2022-12-01T12:38:56.474Z,7.20
2022-12-01T12:41:23.227Z,7.10
2022-12-01T12:44:01.975Z,7.10
2022-12-01T12:46:44.900Z,7.10
2022-12-01T12:49:27.166Z,7.10
2022-12-01T12:52:20.231Z,7.20
2022-12-01T12:54:49.900Z,7.20
2022-12-01T12:57:36.975Z,7.20
2022-12-01T13:00:21.867Z,7.20
2022-12-01T13:03:12.121Z,7.20
2022-12-01T13:05:54.979Z,7.20
2022-12-01T13:08:36.451Z,7.20
2022-12-01T13:11:36.006Z,7.10
2022-12-01T13:14:27.940Z,7.10
2022-12-01T13:16:59.464Z,7.10
2022-12-01T13:19:30.785Z,7.10
2022-12-01T13:21:59.404Z,7.00
2022-12-01T13:24:30.223Z,7.00
2022-12-01T13:27:11.270Z,7.00
2022-12-01T13:29:43.816Z,7.00
2022-12-01T13:32:27.213Z,6.90
2022-12-01T13:34:54.122Z,6.90
2022-12-01T13:37:35.597Z,6.90
2022-12-01T13:40:20.152Z,6.80
2022-12-01T13:43:23.050Z,6.80
2022-12-01T13:45:51.515Z,6.70
2022-12-01T13:48:49.369Z,6.60
2022-12-01T13:51:16.323Z,6.60
2022-12-01T13:54:04.251Z,6.60
2022-12-01T13:56:39.276Z,6.50
2022-12-01T13:59:41.473Z,6.50
2022-12-01T14:02:21.289Z,6.50
2022-12-01T14:04:48.651Z,6.50
2022-12-01T14:07:34.106Z,6.40
2022-12-01T14:10:31.429Z,6.40
2022-12-01T14:13:05.162Z,6.40
2022-12-01T14:15:42.656Z,6.40
2022-12-01T14:18:23.553Z,6.40
2022-12-01T14:20:50.701Z,6.30
2022-12-01T14:23:33.990Z,6.30
2022-12-01T14:26:20.733Z,6.30
2022-12-01T14:29:02.346Z,6.30
2022-12-01T14:31:50.020Z,6.20
2022-12-01T14:34:26.512Z,6.20
2022-12-01T14:37:03.865Z,6.20
2022-12-01T14:39:47.740Z,6.10
2022-12-01T14:42:44.695Z,6.10
2022-12-01T14:45:16.056Z,6.10
2022-12-01T14:47:47.649Z,6.10
2022-12-01T14:50:25.399Z,6.00
2022-12-01T14:53:21.929Z,6.00
2022-12-01T14:55:59.385Z,6.00
2022-12-01T14:58:31.401Z,6.00
2022-12-01T15:01:09.792Z,6.00
2022-12-01T15:03:53.641Z,6.00
2022-12-01T15:06:22.802Z,5.90
2022-12-01T15:12:02.330Z,5.90
2022-12-01T15:14:36.557Z,5.90
2022-12-01T15:17:05.699Z,5.80
2022-12-01T15:19:34.769Z,5.80
2022-12-01T15:22:12.560Z,5.80
2022-12-01T15:24:39.823Z,5.80
2022-12-01T15:27:29.189Z,5.80
2022-12-01T15:29:58.249Z,5.80
2022-12-01T15:32:27.083Z,5.70
2022-12-01T15:34:55.826Z,5.70
2022-12-01T15:37:26.080Z,5.60
2022-12-01T15:40:35.692Z,5.60
2022-12-01T15:42:59.782Z,5.60
2022-12-01T15:45:26.622Z,5.60
2022-12-01T15:47:56.558Z,5.50
2022-12-01T15:50:44.689Z,5.50
2022-12-01T15:53:29.792Z,5.50
2022-12-01T15:55:59.225Z,5.50
2022-12-01T15:58:32.999Z,5.40
2022-12-01T16:01:08.848Z,5.40
2022-12-01T16:03:58.615Z,5.40
2022-12-01T16:06:29.421Z,5.40
2022-12-01T16:09:00.165Z,5.40
2022-12-01T16:11:28.079Z,5.40
2022-12-01T16:14:00.485Z,5.40
2022-12-01T16:16:36.465Z,5.30
2022-12-01T16:19:09.128Z,5.40
2022-12-01T16:21:54.631Z,5.40
2022-12-01T16:24:28.386Z,5.30
2022-12-01T16:27:02.392Z,5.30
2022-12-01T16:29:31.424Z,5.30
2022-12-01T16:32:26.705Z,5.30
2022-12-01T16:34:53.882Z,5.30
2022-12-01T16:37:22.147Z,5.30
2022-12-01T16:39:49.716Z,5.30
2022-12-01T16:42:20.661Z,5.30
2022-12-01T16:44:48.743Z,5.30
2022-12-01T16:47:22.407Z,5.30
2022-12-01T16:49:50.352Z,5.30
2022-12-01T16:55:04.938Z,5.20
2022-12-01T16:57:31.910Z,5.20
2022-12-01T16:59:58.785Z,5.20
2022-12-01T17:02:26.087Z,5.20
2022-12-01T17:04:53.133Z,5.10
2022-12-01T17:07:20.091Z,5.10
2022-12-01T17:09:46.983Z,5.10
2022-12-01T17:12:13.916Z,5.10
2022-12-01T17:14:41.130Z,5.10
2022-12-01T17:17:07.946Z,5.00
2022-12-01T17:19:34.804Z,5.00
2022-12-01T17:22:01.659Z,5.00
2022-12-01T17:24:28.479Z,4.90
2022-12-01T17:26:55.303Z,4.90
2022-12-01T17:29:22.136Z,4.90
2022-12-01T17:31:48.989Z,4.90
2022-12-01T17:34:15.829Z,4.90
2022-12-01T17:36:42.725Z,4.90
2022-12-01T17:39:09.718Z,4.90
2022-12-01T17:41:36.843Z,4.90
2022-12-01T17:44:05.106Z,4.90
2022-12-01T17:46:32.307Z,4.90
2022-12-01T17:48:59.398Z,4.80
2022-12-01T17:51:26.806Z,4.80
2022-12-01T17:53:54.297Z,4.80
2022-12-01T17:56:21.409Z,4.80
2022-12-01T17:58:50.390Z,4.80
2022-12-01T18:01:20.314Z,4.80
2022-12-01T18:03:49.186Z,4.80
2022-12-01T18:06:17.385Z,4.80
2022-12-01T18:08:44.391Z,4.80
2022-12-01T18:11:14.331Z,4.80
2022-12-01T18:13:43.967Z,4.80
2022-12-01T18:16:23.339Z,4.80
2022-12-01T18:18:50.686Z,4.80
2022-12-01T18:21:19.955Z,4.80
2022-12-01T18:23:54.690Z,4.80
2022-12-01T18:26:22.294Z,4.80
2022-12-01T18:29:00.179Z,4.80
2022-12-01T18:31:28.035Z,4.80
2022-12-01T18:33:57.408Z,4.80
2022-12-01T18:36:25.591Z,4.80
2022-12-01T18:38:54.520Z,4.80
2022-12-01T18:41:21.344Z,4.80
2022-12-01T18:43:48.244Z,4.80
2022-12-01T18:46:16.555Z,4.80
2022-12-01T18:48:48.838Z,4.80
2022-12-01T18:51:18.540Z,4.80
2022-12-01T18:53:45.537Z,4.80
2022-12-01T18:56:15.070Z,4.80
2022-12-01T18:58:42.521Z,4.80
2022-12-01T19:01:22.023Z,4.80
2022-12-01T19:03:49.195Z,4.80
2022-12-01T19:06:16.326Z,4.80
2022-12-01T19:08:43.134Z,4.80
2022-12-01T19:11:10.051Z,4.80
2022-12-01T19:13:37.113Z,4.80
2022-12-01T19:16:09.293Z,4.80
2022-12-01T19:18:37.258Z,4.80
2022-12-01T19:21:07.570Z,4.90
2022-12-01T19:23:34.664Z,4.80
2022-12-01T19:26:06.216Z,4.80
2022-12-01T19:28:34.741Z,4.80
2022-12-01T19:31:11.345Z,4.80
2022-12-01T19:33:38.450Z,4.80
2022-12-01T19:36:11.277Z,4.80
2022-12-01T19:38:38.764Z,4.80
2022-12-01T19:41:06.882Z,4.80
2022-12-01T19:43:35.088Z,4.80
2022-12-01T19:46:14.749Z,4.80
2022-12-01T19:48:42.675Z,4.80
2022-12-01T19:51:20.968Z,4.80
2022-12-01T19:53:48.040Z,4.80
2022-12-01T19:56:15.184Z,4.80
2022-12-01T19:58:42.292Z,4.80
2022-12-01T20:01:11.873Z,4.80
2022-12-01T20:03:40.528Z,4.80
2022-12-01T20:06:10.665Z,4.80
2022-12-01T20:08:38.006Z,4.80
2022-12-01T20:11:06.055Z,4.80
2022-12-01T20:13:34.397Z,4.80
2022-12-01T20:16:04.254Z,4.80
2022-12-01T20:18:31.763Z,4.80
2022-12-01T20:21:05.441Z,4.70
2022-12-01T20:23:32.891Z,4.70
2022-12-01T20:26:05.781Z,4.70
2022-12-01T20:28:33.663Z,4.70
2022-12-01T20:31:00.522Z,4.70
2022-12-01T20:33:27.652Z,4.70
2022-12-01T20:35:54.820Z,4.70
2022-12-01T20:38:27.035Z,4.70
2022-12-01T20:40:54.440Z,4.70
2022-12-01T20:43:21.374Z,4.70
2022-12-01T20:45:48.418Z,4.70
2022-12-01T20:48:15.404Z,4.70
2022-12-01T20:50:42.237Z,4.60
2022-12-01T20:53:09.567Z,4.60
2022-12-01T20:55:37.127Z,4.60
2022-12-01T20:58:05.084Z,4.60
2022-12-01T21:00:32.110Z,4.60
2022-12-01T21:02:59.079Z,4.60
2022-12-01T21:05:27.442Z,4.60
2022-12-01T21:07:54.808Z,4.60
2022-12-01T21:10:21.779Z,4.60
2022-12-01T21:13:13.680Z,4.50
2022-12-01T21:15:52.180Z,4.50
2022-12-01T21:18:27.045Z,4.50
2022-12-01T21:21:00.547Z,4.50
2022-12-01T21:23:28.323Z,4.50
2022-12-01T21:25:55.860Z,4.50
2022-12-01T21:28:24.908Z,4.50
2022-12-01T21:30:59.875Z,4.50
2022-12-01T21:33:30.688Z,4.40
2022-12-01T21:35:58.055Z,4.40
2022-12-01T21:38:25.478Z,4.40
2022-12-01T21:40:52.886Z,4.40
2022-12-01T21:43:22.615Z,4.40
2022-12-01T21:45:52.638Z,4.40
2022-12-01T21:48:24.698Z,4.40
2022-12-01T21:50:59.523Z,4.40
2022-12-01T21:53:35.947Z,4.40
2022-12-01T21:56:03.138Z,4.40
2022-12-01T21:58:35.336Z,4.30
2022-12-01T22:01:02.629Z,4.30
2022-12-01T22:03:47.730Z,4.30
2022-12-01T22:06:32.708Z,4.30
2022-12-01T22:09:32.761Z,4.30
2022-12-01T22:12:26.910Z,4.30
2022-12-01T22:14:58.726Z,4.20
2022-12-01T22:17:25.501Z,4.20
2022-12-01T22:19:57.729Z,4.20
2022-12-01T22:22:27.249Z,4.20
2022-12-01T22:24:59.614Z,4.20
2022-12-01T22:27:38.045Z,4.20
2022-12-01T22:30:07.966Z,4.10
2022-12-01T22:32:47.104Z,4.10
2022-12-01T22:35:42.210Z,4.10
2022-12-01T22:38:09.097Z,4.10
2022-12-01T22:40:38.975Z,4.10
2022-12-01T22:43:18.201Z,4.10
2022-12-01T22:45:52.930Z,4.10
2022-12-01T22:48:33.114Z,4.10
2022-12-01T22:51:14.163Z,4.10
2022-12-01T22:53:42.529Z,4.00
2022-12-01T22:56:31.215Z,4.10
2022-12-01T22:58:58.198Z,4.00
2022-12-01T23:01:28.257Z,4.00
2022-12-01T23:04:15.342Z,4.00
2022-12-01T23:06:53.004Z,4.00
2022-12-01T23:09:32.880Z,4.00
2022-12-01T23:12:22.737Z,3.90
2022-12-01T23:14:52.462Z,4.00
2022-12-01T23:17:26.231Z,3.90
2022-12-01T23:20:10.403Z,3.90
2022-12-01T23:22:38.243Z,3.90
2022-12-01T23:25:17.907Z,3.90
2022-12-01T23:27:49.204Z,3.90
2022-12-01T23:30:17.639Z,3.90
2022-12-01T23:32:46.131Z,3.90
2022-12-01T23:35:17.784Z,3.90
2022-12-01T23:37:47.932Z,3.80
2022-12-01T23:40:32.856Z,3.90
2022-12-01T23:43:24.396Z,3.80
2022-12-01T23:46:02.870Z,3.80
2022-12-01T23:48:35.328Z,3.80
2022-12-01T23:51:02.503Z,3.80
2022-12-01T23:53:31.945Z,3.80
2022-12-01T23:56:16.126Z,3.70
2022-12-01T23:58:44.330Z,3.70
